Overview Statistics Trail Chart Weather Telemetry Raw packets
 

This is the latest recevied weather packets stored in our database for station/object N5JXS. If no packets are shown the sender has not sent any weather packets the latest 10 day(s).

<< 37 38 39 40 41 42 43 >>
Time Temp. Humidity Pressure Rain* Wind** Luminosity Snow
1788371009 25° C 29% 1026.2 hPa 0 mm - 598 W/m² -
1788370699 25° C 29% 1026.2 hPa 0 mm - 624 W/m² -
1788370399 24.44° C 29% 1026.2 hPa 0 mm - 605 W/m² -
1788370093 24.44° C 30% 1026.2 hPa 0 mm - 607 W/m² -
1788369787 24.44° C 30% 1026.3 hPa 0 mm - 645 W/m² -
1788369482 25° C 30% 1026.5 hPa 0 mm - 639 W/m² -
1788369177 24.44° C 30% 1026.5 hPa 0 mm - 629 W/m² -
1788368873 24.44° C 30% 1026.8 hPa 0 mm - 628 W/m² -
1788368569 24.44° C 30% 1026.5 hPa 0 mm - 585 W/m² -
1788368264 23.89° C 30% 1026.6 hPa 0 mm - 579 W/m² -
1788367963 24.44° C 31% 1026.6 hPa 0 mm - 601 W/m² -
1788367658 23.89° C 32% 1026.6 hPa 0 mm - 600 W/m² -
1788367353 23.89° C 31% 1026.7 hPa 0 mm - 595 W/m² -
1788367048 23.33° C 31% 1026.8 hPa 0 mm - 586 W/m² -
1788366747 23.33° C 32% 1026.8 hPa 0 mm - 569 W/m² -
1788366446 23.33° C 31% 1026.7 hPa 0 mm - 559 W/m² -
1788366141 22.78° C 32% 1026.7 hPa 0 mm - 537 W/m² -
1788365836 22.78° C 33% 1026.8 hPa 0 mm - 502 W/m² -
1788365532 22.78° C 32% 1027 hPa 0 mm - 485 W/m² -
1788365229 22.22° C 33% 1026.7 hPa 0 mm - 52 W/m² -
1788364928 22.22° C 33% 1026.7 hPa 0 mm - 27 W/m² -
1788364626 22.22° C 33% 1026.7 hPa 0 mm - 37 W/m² -
1788364325 22.22° C 34% 1026.8 hPa 0 mm - 27 W/m² -
1788364020 21.67° C 34% 1026.8 hPa 0 mm - 26 W/m² -
1788363715 21.67° C 34% 1026.7 hPa 0 mm - 36 W/m² -

* Rain latest hour (hover to see other rain measurements)
** Current wind speed in m/s (hover to see current wind gust speed)